sensor_id;sensor_type;location;lat;lon;timestamp;temperature;humidity
5130;DHT22;2583;50.946;6.954;2023-03-05T00:02:04;5.80;99.90
5130;DHT22;2583;50.946;6.954;2023-03-05T00:04:32;5.80;99.90
5130;DHT22;2583;50.946;6.954;2023-03-05T00:06:59;5.70;99.90
5130;DHT22;2583;50.946;6.954;2023-03-05T00:09:26;5.70;99.90
5130;DHT22;2583;50.946;6.954;2023-03-05T00:11:53;5.70;99.90
5130;DHT22;2583;50.946;6.954;2023-03-05T00:14:19;5.70;99.90
5130;DHT22;2583;50.946;6.954;2023-03-05T00:16:46;5.60;99.90
5130;DHT22;2583;50.946;6.954;2023-03-05T00:19:13;5.60;99.90
5130;DHT22;2583;50.946;6.954;2023-03-05T00:21:40;5.60;99.90
5130;DHT22;2583;50.946;6.954;2023-03-05T00:24:12;5.60;99.90
5130;DHT22;2583;50.946;6.954;2023-03-05T00:26:40;5.50;99.90
5130;DHT22;2583;50.946;6.954;2023-03-05T00:29:07;5.50;99.90
5130;DHT22;2583;50.946;6.954;2023-03-05T00:31:35;5.50;99.90
5130;DHT22;2583;50.946;6.954;2023-03-05T00:34:12;5.50;99.90
5130;DHT22;2583;50.946;6.954;2023-03-05T00:36:44;5.50;99.90
5130;DHT22;2583;50.946;6.954;2023-03-05T00:39:11;5.50;99.90
5130;DHT22;2583;50.946;6.954;2023-03-05T00:41:38;5.40;99.90
5130;DHT22;2583;50.946;6.954;2023-03-05T00:44:06;5.40;99.90
5130;DHT22;2583;50.946;6.954;2023-03-05T00:46:33;5.50;99.90
5130;DHT22;2583;50.946;6.954;2023-03-05T00:49:00;5.50;99.90
5130;DHT22;2583;50.946;6.954;2023-03-05T00:51:26;5.40;99.90
5130;DHT22;2583;50.946;6.954;2023-03-05T00:53:54;5.40;99.90
5130;DHT22;2583;50.946;6.954;2023-03-05T00:56:21;5.40;99.90
5130;DHT22;2583;50.946;6.954;2023-03-05T00:58:48;5.40;99.90
5130;DHT22;2583;50.946;6.954;2023-03-05T01:01:15;5.50;99.90
5130;DHT22;2583;50.946;6.954;2023-03-05T01:03:42;5.40;99.90
5130;DHT22;2583;50.946;6.954;2023-03-05T01:06:11;5.40;99.90
5130;DHT22;2583;50.946;6.954;2023-03-05T01:08:38;5.40;99.90
5130;DHT22;2583;50.946;6.954;2023-03-05T01:11:06;5.30;99.90
5130;DHT22;2583;50.946;6.954;2023-03-05T01:13:33;5.40;99.90
5130;DHT22;2583;50.946;6.954;2023-03-05T01:16:00;5.30;99.90
5130;DHT22;2583;50.946;6.954;2023-03-05T01:18:28;5.40;99.90
5130;DHT22;2583;50.946;6.954;2023-03-05T01:20:55;5.30;99.90
5130;DHT22;2583;50.946;6.954;2023-03-05T01:23:22;5.30;99.90
5130;DHT22;2583;50.946;6.954;2023-03-05T01:25:56;5.40;99.90
5130;DHT22;2583;50.946;6.954;2023-03-05T01:28:25;5.40;99.90
5130;DHT22;2583;50.946;6.954;2023-03-05T01:30:52;5.40;99.90
5130;DHT22;2583;50.946;6.954;2023-03-05T01:33:19;5.40;99.90
5130;DHT22;2583;50.946;6.954;2023-03-05T01:35:49;5.30;99.90
5130;DHT22;2583;50.946;6.954;2023-03-05T01:38:16;5.30;99.90
5130;DHT22;2583;50.946;6.954;2023-03-05T01:40:43;5.30;99.90
5130;DHT22;2583;50.946;6.954;2023-03-05T01:45:39;5.30;99.90
5130;DHT22;2583;50.946;6.954;2023-03-05T01:48:25;5.40;99.90
5130;DHT22;2583;50.946;6.954;2023-03-05T01:50:53;5.40;99.90
5130;DHT22;2583;50.946;6.954;2023-03-05T01:53:19;5.40;99.90
5130;DHT22;2583;50.946;6.954;2023-03-05T01:55:46;5.40;99.90
5130;DHT22;2583;50.946;6.954;2023-03-05T01:58:13;5.40;99.90
5130;DHT22;2583;50.946;6.954;2023-03-05T02:00:43;5.40;99.90
5130;DHT22;2583;50.946;6.954;2023-03-05T02:03:12;5.40;99.90
5130;DHT22;2583;50.946;6.954;2023-03-05T02:05:40;5.40;99.90
5130;DHT22;2583;50.946;6.954;2023-03-05T02:08:11;5.40;99.90
5130;DHT22;2583;50.946;6.954;2023-03-05T02:10:42;5.40;99.90
5130;DHT22;2583;50.946;6.954;2023-03-05T02:13:13;5.40;99.90
5130;DHT22;2583;50.946;6.954;2023-03-05T02:15:41;5.50;99.90
5130;DHT22;2583;50.946;6.954;2023-03-05T02:18:08;5.50;99.90
5130;DHT22;2583;50.946;6.954;2023-03-05T02:21:08;5.50;99.90
5130;DHT22;2583;50.946;6.954;2023-03-05T02:23:37;5.30;99.90
5130;DHT22;2583;50.946;6.954;2023-03-05T02:26:06;5.30;99.90
5130;DHT22;2583;50.946;6.954;2023-03-05T02:28:38;5.30;99.90
5130;DHT22;2583;50.946;6.954;2023-03-05T02:31:12;5.20;99.90
5130;DHT22;2583;50.946;6.954;2023-03-05T02:33:40;5.20;99.90
5130;DHT22;2583;50.946;6.954;2023-03-05T02:36:07;5.20;99.90
5130;DHT22;2583;50.946;6.954;2023-03-05T02:38:35;5.20;99.90
5130;DHT22;2583;50.946;6.954;2023-03-05T02:41:02;5.20;99.90
5130;DHT22;2583;50.946;6.954;2023-03-05T02:43:28;5.20;99.90
5130;DHT22;2583;50.946;6.954;2023-03-05T02:45:55;5.20;99.90
5130;DHT22;2583;50.946;6.954;2023-03-05T02:48:22;5.20;99.90
5130;DHT22;2583;50.946;6.954;2023-03-05T02:50:49;5.20;99.90
5130;DHT22;2583;50.946;6.954;2023-03-05T02:53:16;5.20;99.90
5130;DHT22;2583;50.946;6.954;2023-03-05T02:55:46;5.10;99.90
5130;DHT22;2583;50.946;6.954;2023-03-05T02:58:13;5.20;99.90
5130;DHT22;2583;50.946;6.954;2023-03-05T03:00:40;5.10;99.90
5130;DHT22;2583;50.946;6.954;2023-03-05T03:03:07;5.20;99.90
5130;DHT22;2583;50.946;6.954;2023-03-05T03:05:35;5.10;99.90
5130;DHT22;2583;50.946;6.954;2023-03-05T03:08:02;5.10;99.90
5130;DHT22;2583;50.946;6.954;2023-03-05T03:10:29;5.20;99.90
5130;DHT22;2583;50.946;6.954;2023-03-05T03:12:56;5.20;99.90
5130;DHT22;2583;50.946;6.954;2023-03-05T03:15:23;5.20;99.90
5130;DHT22;2583;50.946;6.954;2023-03-05T03:17:49;5.20;99.90
5130;DHT22;2583;50.946;6.954;2023-03-05T03:20:17;5.20;99.90
5130;DHT22;2583;50.946;6.954;2023-03-05T03:22:46;5.20;99.90
5130;DHT22;2583;50.946;6.954;2023-03-05T03:25:18;5.10;99.90
5130;DHT22;2583;50.946;6.954;2023-03-05T03:27:45;5.00;99.90
5130;DHT22;2583;50.946;6.954;2023-03-05T03:30:12;5.00;99.90
5130;DHT22;2583;50.946;6.954;2023-03-05T03:32:39;5.00;99.90
5130;DHT22;2583;50.946;6.954;2023-03-05T03:35:07;5.00;99.90
5130;DHT22;2583;50.946;6.954;2023-03-05T03:37:35;5.00;99.90
5130;DHT22;2583;50.946;6.954;2023-03-05T03:40:03;5.00;99.90
5130;DHT22;2583;50.946;6.954;2023-03-05T03:42:31;5.10;99.90
5130;DHT22;2583;50.946;6.954;2023-03-05T03:44:58;5.00;99.90
5130;DHT22;2583;50.946;6.954;2023-03-05T03:47:26;5.00;99.90
5130;DHT22;2583;50.946;6.954;2023-03-05T03:49:53;5.10;99.90
5130;DHT22;2583;50.946;6.954;2023-03-05T03:52:20;5.10;99.90
5130;DHT22;2583;50.946;6.954;2023-03-05T03:54:49;5.10;99.90
5130;DHT22;2583;50.946;6.954;2023-03-05T03:57:18;5.10;99.90
5130;DHT22;2583;50.946;6.954;2023-03-05T03:59:44;5.10;99.90
5130;DHT22;2583;50.946;6.954;2023-03-05T04:02:11;5.10;99.90
5130;DHT22;2583;50.946;6.954;2023-03-05T04:04:38;5.20;99.90
5130;DHT22;2583;50.946;6.954;2023-03-05T04:07:05;5.10;99.90
5130;DHT22;2583;50.946;6.954;2023-03-05T04:09:32;5.10;99.90
5130;DHT22;2583;50.946;6.954;2023-03-05T04:11:59;5.20;99.90
5130;DHT22;2583;50.946;6.954;2023-03-05T04:14:25;5.20;99.90
5130;DHT22;2583;50.946;6.954;2023-03-05T04:16:52;5.30;99.90
5130;DHT22;2583;50.946;6.954;2023-03-05T04:19:19;5.30;99.90
5130;DHT22;2583;50.946;6.954;2023-03-05T04:21:46;5.30;99.90
5130;DHT22;2583;50.946;6.954;2023-03-05T04:24:14;5.30;99.90
5130;DHT22;2583;50.946;6.954;2023-03-05T04:26:40;5.20;99.90
5130;DHT22;2583;50.946;6.954;2023-03-05T04:29:07;5.20;99.90
5130;DHT22;2583;50.946;6.954;2023-03-05T04:31:34;5.20;99.90
5130;DHT22;2583;50.946;6.954;2023-03-05T04:34:01;5.40;99.90
5130;DHT22;2583;50.946;6.954;2023-03-05T04:36:28;5.40;99.90
5130;DHT22;2583;50.946;6.954;2023-03-05T04:38:54;5.30;99.90
5130;DHT22;2583;50.946;6.954;2023-03-05T04:41:21;5.30;99.90
5130;DHT22;2583;50.946;6.954;2023-03-05T04:43:48;5.20;99.90
5130;DHT22;2583;50.946;6.954;2023-03-05T04:46:15;5.10;99.90
5130;DHT22;2583;50.946;6.954;2023-03-05T04:48:41;5.20;99.90
5130;DHT22;2583;50.946;6.954;2023-03-05T04:51:08;5.20;99.90
5130;DHT22;2583;50.946;6.954;2023-03-05T04:53:35;5.20;99.90
5130;DHT22;2583;50.946;6.954;2023-03-05T04:56:02;5.20;99.90
5130;DHT22;2583;50.946;6.954;2023-03-05T04:58:29;5.20;99.90
5130;DHT22;2583;50.946;6.954;2023-03-05T05:01:02;5.30;99.90
5130;DHT22;2583;50.946;6.954;2023-03-05T05:03:30;5.10;99.90
5130;DHT22;2583;50.946;6.954;2023-03-05T05:05:58;5.20;99.90
5130;DHT22;2583;50.946;6.954;2023-03-05T05:08:26;5.20;99.90
5130;DHT22;2583;50.946;6.954;2023-03-05T05:11:01;5.20;99.90
5130;DHT22;2583;50.946;6.954;2023-03-05T05:13:28;5.20;99.90
5130;DHT22;2583;50.946;6.954;2023-03-05T05:15:55;5.20;99.90
5130;DHT22;2583;50.946;6.954;2023-03-05T05:18:23;5.10;99.90
5130;DHT22;2583;50.946;6.954;2023-03-05T05:20:49;5.20;99.90
5130;DHT22;2583;50.946;6.954;2023-03-05T05:23:17;5.20;99.90
5130;DHT22;2583;50.946;6.954;2023-03-05T05:25:43;5.20;99.90
5130;DHT22;2583;50.946;6.954;2023-03-05T05:28:11;5.10;99.90
5130;DHT22;2583;50.946;6.954;2023-03-05T05:30:38;5.10;99.90
5130;DHT22;2583;50.946;6.954;2023-03-05T05:33:05;5.00;99.90
5130;DHT22;2583;50.946;6.954;2023-03-05T05:35:31;5.00;99.90
5130;DHT22;2583;50.946;6.954;2023-03-05T05:37:58;5.00;99.90
5130;DHT22;2583;50.946;6.954;2023-03-05T05:40:25;5.00;99.90
5130;DHT22;2583;50.946;6.954;2023-03-05T05:42:52;5.00;99.90
5130;DHT22;2583;50.946;6.954;2023-03-05T05:45:19;5.10;99.90
5130;DHT22;2583;50.946;6.954;2023-03-05T05:47:46;5.20;99.90
5130;DHT22;2583;50.946;6.954;2023-03-05T05:50:12;5.10;99.90
5130;DHT22;2583;50.946;6.954;2023-03-05T05:52:40;5.10;99.90
5130;DHT22;2583;50.946;6.954;2023-03-05T05:55:07;5.10;99.90
5130;DHT22;2583;50.946;6.954;2023-03-05T05:57:34;5.10;99.90
5130;DHT22;2583;50.946;6.954;2023-03-05T06:00:02;5.10;99.90
5130;DHT22;2583;50.946;6.954;2023-03-05T06:02:29;5.10;99.90
5130;DHT22;2583;50.946;6.954;2023-03-05T06:04:56;5.20;99.90
5130;DHT22;2583;50.946;6.954;2023-03-05T06:07:24;5.30;99.90
5130;DHT22;2583;50.946;6.954;2023-03-05T06:09:50;5.30;99.90
5130;DHT22;2583;50.946;6.954;2023-03-05T06:12:17;5.30;99.90
5130;DHT22;2583;50.946;6.954;2023-03-05T06:14:44;5.30;99.90
5130;DHT22;2583;50.946;6.954;2023-03-05T06:17:11;5.30;99.90
5130;DHT22;2583;50.946;6.954;2023-03-05T06:19:42;5.30;99.90
5130;DHT22;2583;50.946;6.954;2023-03-05T06:22:09;5.20;99.90
5130;DHT22;2583;50.946;6.954;2023-03-05T06:24:37;5.20;99.90
5130;DHT22;2583;50.946;6.954;2023-03-05T06:27:04;5.20;99.90
5130;DHT22;2583;50.946;6.954;2023-03-05T06:29:31;5.10;99.90
5130;DHT22;2583;50.946;6.954;2023-03-05T06:31:58;5.10;99.90
5130;DHT22;2583;50.946;6.954;2023-03-05T06:34:25;5.10;99.90
5130;DHT22;2583;50.946;6.954;2023-03-05T06:36:52;5.10;99.90
5130;DHT22;2583;50.946;6.954;2023-03-05T06:39:20;5.20;99.90
5130;DHT22;2583;50.946;6.954;2023-03-05T06:41:49;5.20;99.90
5130;DHT22;2583;50.946;6.954;2023-03-05T06:44:17;5.30;99.90
5130;DHT22;2583;50.946;6.954;2023-03-05T06:46:44;5.30;99.90
5130;DHT22;2583;50.946;6.954;2023-03-05T06:49:11;5.30;99.90
5130;DHT22;2583;50.946;6.954;2023-03-05T06:51:39;5.40;99.90
5130;DHT22;2583;50.946;6.954;2023-03-05T06:54:08;5.40;99.90
5130;DHT22;2583;50.946;6.954;2023-03-05T06:56:38;5.50;99.90
5130;DHT22;2583;50.946;6.954;2023-03-05T06:59:06;5.60;99.90
5130;DHT22;2583;50.946;6.954;2023-03-05T07:01:33;5.60;99.90
5130;DHT22;2583;50.946;6.954;2023-03-05T07:04:00;5.60;99.90
5130;DHT22;2583;50.946;6.954;2023-03-05T07:06:31;5.80;99.90
5130;DHT22;2583;50.946;6.954;2023-03-05T07:08:58;5.70;1.00
5130;DHT22;2583;50.946;6.954;2023-03-05T07:11:27;5.70;1.00
5130;DHT22;2583;50.946;6.954;2023-03-05T07:13:54;5.80;1.00
5130;DHT22;2583;50.946;6.954;2023-03-05T07:16:24;5.70;1.00
5130;DHT22;2583;50.946;6.954;2023-03-05T07:18:52;5.70;1.00
5130;DHT22;2583;50.946;6.954;2023-03-05T07:21:24;5.80;1.00
5130;DHT22;2583;50.946;6.954;2023-03-05T07:23:56;5.90;1.00
5130;DHT22;2583;50.946;6.954;2023-03-05T07:26:23;5.80;1.00
5130;DHT22;2583;50.946;6.954;2023-03-05T07:28:50;5.70;1.00
5130;DHT22;2583;50.946;6.954;2023-03-05T07:31:19;5.70;1.00
5130;DHT22;2583;50.946;6.954;2023-03-05T07:33:48;5.80;1.00
5130;DHT22;2583;50.946;6.954;2023-03-05T07:36:16;5.80;1.00
5130;DHT22;2583;50.946;6.954;2023-03-05T07:38:43;5.80;1.00
5130;DHT22;2583;50.946;6.954;2023-03-05T07:41:15;5.80;1.00
5130;DHT22;2583;50.946;6.954;2023-03-05T07:43:47;5.80;1.00
5130;DHT22;2583;50.946;6.954;2023-03-05T07:46:16;5.80;1.00
5130;DHT22;2583;50.946;6.954;2023-03-05T07:48:43;5.90;1.00
5130;DHT22;2583;50.946;6.954;2023-03-05T07:51:13;5.80;1.00
5130;DHT22;2583;50.946;6.954;2023-03-05T07:53:42;5.80;1.00
5130;DHT22;2583;50.946;6.954;2023-03-05T07:56:10;5.90;1.00
5130;DHT22;2583;50.946;6.954;2023-03-05T07:58:36;5.80;1.00
5130;DHT22;2583;50.946;6.954;2023-03-05T08:01:08;5.70;1.00
5130;DHT22;2583;50.946;6.954;2023-03-05T08:03:39;5.70;1.00
5130;DHT22;2583;50.946;6.954;2023-03-05T08:06:06;5.60;1.00
5130;DHT22;2583;50.946;6.954;2023-03-05T08:08:33;5.60;1.00
5130;DHT22;2583;50.946;6.954;2023-03-05T08:11:03;5.60;1.00
5130;DHT22;2583;50.946;6.954;2023-03-05T08:13:30;5.60;1.00
5130;DHT22;2583;50.946;6.954;2023-03-05T08:15:58;5.50;1.00
5130;DHT22;2583;50.946;6.954;2023-03-05T08:18:25;5.50;1.00
5130;DHT22;2583;50.946;6.954;2023-03-05T08:20:51;5.50;1.00
5130;DHT22;2583;50.946;6.954;2023-03-05T08:23:18;5.60;1.00
5130;DHT22;2583;50.946;6.954;2023-03-05T08:25:45;5.70;1.00
5130;DHT22;2583;50.946;6.954;2023-03-05T08:28:12;5.60;1.00
5130;DHT22;2583;50.946;6.954;2023-03-05T08:30:39;5.60;1.00
5130;DHT22;2583;50.946;6.954;2023-03-05T08:33:06;5.60;1.00
5130;DHT22;2583;50.946;6.954;2023-03-05T08:35:33;5.80;1.00
5130;DHT22;2583;50.946;6.954;2023-03-05T08:37:59;5.70;1.00
5130;DHT22;2583;50.946;6.954;2023-03-05T08:40:26;5.70;1.00
5130;DHT22;2583;50.946;6.954;2023-03-05T08:42:53;5.70;1.00
5130;DHT22;2583;50.946;6.954;2023-03-05T08:45:20;5.70;1.00
5130;DHT22;2583;50.946;6.954;2023-03-05T08:47:46;5.70;1.00
5130;DHT22;2583;50.946;6.954;2023-03-05T08:50:13;5.70;1.00
5130;DHT22;2583;50.946;6.954;2023-03-05T08:52:40;5.60;1.00
5130;DHT22;2583;50.946;6.954;2023-03-05T08:55:07;5.60;99.90
5130;DHT22;2583;50.946;6.954;2023-03-05T08:57:34;5.60;97.20
5130;DHT22;2583;50.946;6.954;2023-03-05T09:00:01;5.70;99.00
5130;DHT22;2583;50.946;6.954;2023-03-05T09:02:28;5.70;99.00
5130;DHT22;2583;50.946;6.954;2023-03-05T09:04:55;5.70;99.20
5130;DHT22;2583;50.946;6.954;2023-03-05T09:07:23;5.90;98.90
5130;DHT22;2583;50.946;6.954;2023-03-05T09:09:50;6.00;98.20
5130;DHT22;2583;50.946;6.954;2023-03-05T09:12:16;6.00;97.80
5130;DHT22;2583;50.946;6.954;2023-03-05T09:14:44;6.10;98.00
5130;DHT22;2583;50.946;6.954;2023-03-05T09:17:10;6.10;97.90
5130;DHT22;2583;50.946;6.954;2023-03-05T09:19:37;6.10;97.60
5130;DHT22;2583;50.946;6.954;2023-03-05T09:22:04;6.10;97.60
5130;DHT22;2583;50.946;6.954;2023-03-05T09:24:31;6.20;97.70
5130;DHT22;2583;50.946;6.954;2023-03-05T09:26:58;6.20;97.10
5130;DHT22;2583;50.946;6.954;2023-03-05T09:29:28;6.30;96.10
5130;DHT22;2583;50.946;6.954;2023-03-05T09:31:56;6.50;1.00
5130;DHT22;2583;50.946;6.954;2023-03-05T09:34:23;6.50;1.00
5130;DHT22;2583;50.946;6.954;2023-03-05T09:36:50;6.60;1.00
5130;DHT22;2583;50.946;6.954;2023-03-05T09:39:17;6.60;1.00
5130;DHT22;2583;50.946;6.954;2023-03-05T09:50:27;6.80;1.00
5130;DHT22;2583;50.946;6.954;2023-03-05T09:55:46;6.60;1.00
5130;DHT22;2583;50.946;6.954;2023-03-05T09:58:34;6.60;1.00
5130;DHT22;2583;50.946;6.954;2023-03-05T10:01:04;6.70;1.00
5130;DHT22;2583;50.946;6.954;2023-03-05T10:03:53;6.70;1.00
5130;DHT22;2583;50.946;6.954;2023-03-05T10:11:48;6.50;1.00
5130;DHT22;2583;50.946;6.954;2023-03-05T10:14:28;6.50;1.00
5130;DHT22;2583;50.946;6.954;2023-03-05T10:28:06;6.40;1.00
5130;DHT22;2583;50.946;6.954;2023-03-05T10:33:27;6.20;1.00
5130;DHT22;2583;50.946;6.954;2023-03-05T10:41:31;6.20;99.90
5130;DHT22;2583;50.946;6.954;2023-03-05T10:46:56;6.10;99.90
5130;DHT22;2583;50.946;6.954;2023-03-05T10:49:32;6.20;99.90
5130;DHT22;2583;50.946;6.954;2023-03-05T10:52:15;6.10;99.90
5130;DHT22;2583;50.946;6.954;2023-03-05T10:54:44;6.20;99.90
5130;DHT22;2583;50.946;6.954;2023-03-05T10:57:18;6.20;99.90
5130;DHT22;2583;50.946;6.954;2023-03-05T10:59:52;6.10;99.90
5130;DHT22;2583;50.946;6.954;2023-03-05T11:02:21;6.20;99.90
5130;DHT22;2583;50.946;6.954;2023-03-05T11:04:49;6.10;99.90
5130;DHT22;2583;50.946;6.954;2023-03-05T11:07:38;6.10;99.90
5130;DHT22;2583;50.946;6.954;2023-03-05T11:10:14;6.00;99.90
5130;DHT22;2583;50.946;6.954;2023-03-05T11:12:41;6.00;99.90
5130;DHT22;2583;50.946;6.954;2023-03-05T11:28:19;6.40;99.90
5130;DHT22;2583;50.946;6.954;2023-03-05T11:31:20;6.30;99.90
5130;DHT22;2583;50.946;6.954;2023-03-05T11:34:00;6.40;99.90
5130;DHT22;2583;50.946;6.954;2023-03-05T11:36:41;6.30;99.90
5130;DHT22;2583;50.946;6.954;2023-03-05T11:39:13;6.60;99.90
5130;DHT22;2583;50.946;6.954;2023-03-05T11:41:53;6.70;99.90
5130;DHT22;2583;50.946;6.954;2023-03-05T11:49:47;6.80;1.00
5130;DHT22;2583;50.946;6.954;2023-03-05T11:55:28;6.70;1.00
5130;DHT22;2583;50.946;6.954;2023-03-05T11:58:27;6.60;1.00
5130;DHT22;2583;50.946;6.954;2023-03-05T12:00:58;6.60;1.00
5130;DHT22;2583;50.946;6.954;2023-03-05T12:03:31;6.50;1.00
5130;DHT22;2583;50.946;6.954;2023-03-05T12:09:39;6.50;99.90
5130;DHT22;2583;50.946;6.954;2023-03-05T12:23:51;6.80;1.00
5130;DHT22;2583;50.946;6.954;2023-03-05T12:26:54;6.80;1.00
5130;DHT22;2583;50.946;6.954;2023-03-05T12:34:59;6.80;1.00
5130;DHT22;2583;50.946;6.954;2023-03-05T12:43:03;6.80;1.00
5130;DHT22;2583;50.946;6.954;2023-03-05T12:45:31;6.90;1.00
5130;DHT22;2583;50.946;6.954;2023-03-05T13:00:57;6.90;1.00
5130;DHT22;2583;50.946;6.954;2023-03-05T13:03:33;7.10;1.00
5130;DHT22;2583;50.946;6.954;2023-03-05T13:06:01;7.20;1.00
5130;DHT22;2583;50.946;6.954;2023-03-05T13:08:32;7.10;1.00
5130;DHT22;2583;50.946;6.954;2023-03-05T13:11:07;7.00;1.00
5130;DHT22;2583;50.946;6.954;2023-03-05T13:13:37;7.00;1.00
5130;DHT22;2583;50.946;6.954;2023-03-05T13:16:17;7.00;1.00
5130;DHT22;2583;50.946;6.954;2023-03-05T13:18:47;7.10;1.00
5130;DHT22;2583;50.946;6.954;2023-03-05T13:21:19;7.30;1.00
5130;DHT22;2583;50.946;6.954;2023-03-05T13:23:54;7.40;1.00
5130;DHT22;2583;50.946;6.954;2023-03-05T13:26:29;7.40;1.00
5130;DHT22;2583;50.946;6.954;2023-03-05T13:29:18;7.40;1.00
5130;DHT22;2583;50.946;6.954;2023-03-05T13:31:51;7.40;1.00
5130;DHT22;2583;50.946;6.954;2023-03-05T13:37:20;7.40;1.00
5130;DHT22;2583;50.946;6.954;2023-03-05T13:39:51;7.20;1.00
5130;DHT22;2583;50.946;6.954;2023-03-05T13:42:25;7.30;1.00
5130;DHT22;2583;50.946;6.954;2023-03-05T13:44:56;7.30;1.00
5130;DHT22;2583;50.946;6.954;2023-03-05T13:47:25;7.20;1.00
5130;DHT22;2583;50.946;6.954;2023-03-05T13:49:58;7.00;1.00
5130;DHT22;2583;50.946;6.954;2023-03-05T13:52:29;7.00;1.00
5130;DHT22;2583;50.946;6.954;2023-03-05T13:54:58;7.00;1.00
5130;DHT22;2583;50.946;6.954;2023-03-05T13:57:42;6.70;1.00
5130;DHT22;2583;50.946;6.954;2023-03-05T14:02:57;6.70;1.00
5130;DHT22;2583;50.946;6.954;2023-03-05T14:05:26;6.80;1.00
5130;DHT22;2583;50.946;6.954;2023-03-05T14:07:53;7.00;1.00
5130;DHT22;2583;50.946;6.954;2023-03-05T14:10:42;7.00;1.00
5130;DHT22;2583;50.946;6.954;2023-03-05T14:13:20;7.00;1.00
5130;DHT22;2583;50.946;6.954;2023-03-05T14:16:13;7.00;1.00
5130;DHT22;2583;50.946;6.954;2023-03-05T14:18:55;7.00;1.00
5130;DHT22;2583;50.946;6.954;2023-03-05T14:21:22;7.00;1.00
5130;DHT22;2583;50.946;6.954;2023-03-05T14:23:51;6.90;1.00
5130;DHT22;2583;50.946;6.954;2023-03-05T14:26:34;6.90;1.00
5130;DHT22;2583;50.946;6.954;2023-03-05T14:29:10;7.00;1.00
5130;DHT22;2583;50.946;6.954;2023-03-05T14:32:01;7.00;1.00
5130;DHT22;2583;50.946;6.954;2023-03-05T14:34:31;7.10;1.00
5130;DHT22;2583;50.946;6.954;2023-03-05T14:37:01;7.00;1.00
5130;DHT22;2583;50.946;6.954;2023-03-05T14:39:38;7.00;1.00
5130;DHT22;2583;50.946;6.954;2023-03-05T14:44:52;7.00;1.00
5130;DHT22;2583;50.946;6.954;2023-03-05T14:47:19;6.90;1.00
5130;DHT22;2583;50.946;6.954;2023-03-05T14:49:45;7.00;1.00
5130;DHT22;2583;50.946;6.954;2023-03-05T14:52:18;7.00;1.00
5130;DHT22;2583;50.946;6.954;2023-03-05T14:54:45;7.00;1.00
5130;DHT22;2583;50.946;6.954;2023-03-05T14:57:22;7.00;1.00
5130;DHT22;2583;50.946;6.954;2023-03-05T14:59:49;6.90;1.00
5130;DHT22;2583;50.946;6.954;2023-03-05T15:02:21;7.00;1.00
5130;DHT22;2583;50.946;6.954;2023-03-05T15:04:48;6.90;1.00
5130;DHT22;2583;50.946;6.954;2023-03-05T15:09:43;6.80;1.00
5130;DHT22;2583;50.946;6.954;2023-03-05T15:12:12;6.80;1.00
5130;DHT22;2583;50.946;6.954;2023-03-05T15:14:39;6.90;1.00
5130;DHT22;2583;50.946;6.954;2023-03-05T15:17:14;6.90;1.00
5130;DHT22;2583;50.946;6.954;2023-03-05T15:19:43;6.90;1.00
5130;DHT22;2583;50.946;6.954;2023-03-05T15:22:11;6.90;1.00
5130;DHT22;2583;50.946;6.954;2023-03-05T15:24:38;6.80;1.00
5130;DHT22;2583;50.946;6.954;2023-03-05T15:27:05;6.80;1.00
5130;DHT22;2583;50.946;6.954;2023-03-05T15:29:32;6.80;1.00
5130;DHT22;2583;50.946;6.954;2023-03-05T15:32:00;6.80;1.00
5130;DHT22;2583;50.946;6.954;2023-03-05T15:34:28;6.90;1.00
5130;DHT22;2583;50.946;6.954;2023-03-05T15:36:55;6.90;1.00
5130;DHT22;2583;50.946;6.954;2023-03-05T15:39:22;6.90;1.00
5130;DHT22;2583;50.946;6.954;2023-03-05T15:41:51;6.90;1.00
5130;DHT22;2583;50.946;6.954;2023-03-05T15:44:19;6.90;1.00
5130;DHT22;2583;50.946;6.954;2023-03-05T15:46:45;7.00;1.00
5130;DHT22;2583;50.946;6.954;2023-03-05T15:49:13;7.00;1.00
5130;DHT22;2583;50.946;6.954;2023-03-05T15:51:40;7.00;1.00
5130;DHT22;2583;50.946;6.954;2023-03-05T15:54:07;7.00;1.00
5130;DHT22;2583;50.946;6.954;2023-03-05T15:56:34;6.90;1.00
5130;DHT22;2583;50.946;6.954;2023-03-05T15:59:01;6.90;1.00
5130;DHT22;2583;50.946;6.954;2023-03-05T16:01:28;6.80;1.00
5130;DHT22;2583;50.946;6.954;2023-03-05T16:03:55;6.80;1.00
5130;DHT22;2583;50.946;6.954;2023-03-05T16:06:22;6.90;1.00
5130;DHT22;2583;50.946;6.954;2023-03-05T16:08:53;6.90;1.00
5130;DHT22;2583;50.946;6.954;2023-03-05T16:11:20;6.90;1.00
5130;DHT22;2583;50.946;6.954;2023-03-05T16:13:47;7.00;1.00
5130;DHT22;2583;50.946;6.954;2023-03-05T16:16:16;7.00;1.00
5130;DHT22;2583;50.946;6.954;2023-03-05T16:18:44;6.90;1.00
5130;DHT22;2583;50.946;6.954;2023-03-05T16:21:11;6.90;1.00
5130;DHT22;2583;50.946;6.954;2023-03-05T16:23:39;6.90;1.00
5130;DHT22;2583;50.946;6.954;2023-03-05T16:26:07;7.00;1.00
5130;DHT22;2583;50.946;6.954;2023-03-05T16:28:36;6.90;1.00
5130;DHT22;2583;50.946;6.954;2023-03-05T16:31:03;6.90;1.00
5130;DHT22;2583;50.946;6.954;2023-03-05T16:33:31;6.90;99.90
5130;DHT22;2583;50.946;6.954;2023-03-05T16:36:20;6.70;99.90
5130;DHT22;2583;50.946;6.954;2023-03-05T16:38:49;6.70;99.90
5130;DHT22;2583;50.946;6.954;2023-03-05T16:41:17;6.70;99.90
5130;DHT22;2583;50.946;6.954;2023-03-05T16:43:44;6.60;1.00
5130;DHT22;2583;50.946;6.954;2023-03-05T16:46:12;6.60;99.90
5130;DHT22;2583;50.946;6.954;2023-03-05T16:48:40;6.70;99.90
5130;DHT22;2583;50.946;6.954;2023-03-05T16:51:08;6.70;99.90
5130;DHT22;2583;50.946;6.954;2023-03-05T16:53:36;6.60;99.90
5130;DHT22;2583;50.946;6.954;2023-03-05T16:56:05;6.70;99.90
5130;DHT22;2583;50.946;6.954;2023-03-05T16:58:33;6.70;99.60
5130;DHT22;2583;50.946;6.954;2023-03-05T17:01:00;6.60;99.90
5130;DHT22;2583;50.946;6.954;2023-03-05T17:03:28;6.60;99.90
5130;DHT22;2583;50.946;6.954;2023-03-05T17:05:54;6.60;99.90
5130;DHT22;2583;50.946;6.954;2023-03-05T17:08:21;6.50;99.90
5130;DHT22;2583;50.946;6.954;2023-03-05T17:10:50;6.60;99.90
5130;DHT22;2583;50.946;6.954;2023-03-05T17:13:17;6.50;99.90
5130;DHT22;2583;50.946;6.954;2023-03-05T17:15:43;6.50;99.90
5130;DHT22;2583;50.946;6.954;2023-03-05T17:18:10;6.50;99.90
5130;DHT22;2583;50.946;6.954;2023-03-05T17:20:37;6.50;99.90
5130;DHT22;2583;50.946;6.954;2023-03-05T17:23:04;6.60;99.90
5130;DHT22;2583;50.946;6.954;2023-03-05T17:25:30;6.40;99.90
5130;DHT22;2583;50.946;6.954;2023-03-05T17:27:57;6.50;99.90
5130;DHT22;2583;50.946;6.954;2023-03-05T17:30:24;6.50;99.90
5130;DHT22;2583;50.946;6.954;2023-03-05T17:32:52;6.40;99.90
5130;DHT22;2583;50.946;6.954;2023-03-05T17:35:20;6.30;99.90
5130;DHT22;2583;50.946;6.954;2023-03-05T17:37:48;6.30;99.90
5130;DHT22;2583;50.946;6.954;2023-03-05T17:40:15;6.30;99.90
5130;DHT22;2583;50.946;6.954;2023-03-05T17:42:42;6.30;99.90
5130;DHT22;2583;50.946;6.954;2023-03-05T17:45:09;6.40;99.90
5130;DHT22;2583;50.946;6.954;2023-03-05T17:47:36;6.40;99.90
5130;DHT22;2583;50.946;6.954;2023-03-05T17:50:03;6.50;99.90
5130;DHT22;2583;50.946;6.954;2023-03-05T17:52:31;6.40;99.90
5130;DHT22;2583;50.946;6.954;2023-03-05T17:54:57;6.40;99.90
5130;DHT22;2583;50.946;6.954;2023-03-05T17:57:25;6.40;99.80
5130;DHT22;2583;50.946;6.954;2023-03-05T17:59:51;6.40;99.90
5130;DHT22;2583;50.946;6.954;2023-03-05T18:02:18;6.40;99.70
5130;DHT22;2583;50.946;6.954;2023-03-05T18:04:45;6.30;99.90
5130;DHT22;2583;50.946;6.954;2023-03-05T18:07:13;6.20;99.90
5130;DHT22;2583;50.946;6.954;2023-03-05T18:09:40;6.10;99.90
5130;DHT22;2583;50.946;6.954;2023-03-05T18:12:06;6.20;99.90
5130;DHT22;2583;50.946;6.954;2023-03-05T18:14:33;6.20;99.90
5130;DHT22;2583;50.946;6.954;2023-03-05T18:17:00;6.20;99.90
5130;DHT22;2583;50.946;6.954;2023-03-05T18:19:27;6.20;99.20
5130;DHT22;2583;50.946;6.954;2023-03-05T18:21:54;6.20;99.60
5130;DHT22;2583;50.946;6.954;2023-03-05T18:24:20;6.30;99.00
5130;DHT22;2583;50.946;6.954;2023-03-05T18:26:47;6.30;99.30
5130;DHT22;2583;50.946;6.954;2023-03-05T18:29:14;6.20;98.30
5130;DHT22;2583;50.946;6.954;2023-03-05T18:31:44;6.20;99.50